sensor_id;sensor_type;location;lat;lon;timestamp;P1;durP1;ratioP1;P2;durP2;ratioP2
52124;SDS011;38119;52.710;6.398;2023-04-24T00:01:30;1.00;;;1.00;;
52124;SDS011;38119;52.710;6.398;2023-04-24T00:03:56;2.25;;;1.13;;
52124;SDS011;38119;52.710;6.398;2023-04-24T00:06:24;1.20;;;1.10;;
52124;SDS011;38119;52.710;6.398;2023-04-24T00:08:58;1.05;;;0.93;;
52124;SDS011;38119;52.710;6.398;2023-04-24T00:11:27;1.00;;;1.00;;
52124;SDS011;38119;52.710;6.398;2023-04-24T00:13:53;1.63;;;1.20;;
52124;SDS011;38119;52.710;6.398;2023-04-24T00:16:18;1.23;;;1.13;;
52124;SDS011;38119;52.710;6.398;2023-04-24T00:18:44;1.50;;;1.40;;
52124;SDS011;38119;52.710;6.398;2023-04-24T00:21:10;2.88;;;1.60;;
52124;SDS011;38119;52.710;6.398;2023-04-24T00:23:36;2.00;;;1.50;;
52124;SDS011;38119;52.710;6.398;2023-04-24T00:26:01;1.90;;;1.55;;
52124;SDS011;38119;52.710;6.398;2023-04-24T00:28:27;2.72;;;1.55;;
52124;SDS011;38119;52.710;6.398;2023-04-24T00:30:53;2.20;;;1.70;;
52124;SDS011;38119;52.710;6.398;2023-04-24T00:33:19;1.80;;;1.65;;
52124;SDS011;38119;52.710;6.398;2023-04-24T00:35:45;2.85;;;2.30;;
52124;SDS011;38119;52.710;6.398;2023-04-24T00:38:11;2.22;;;2.03;;
52124;SDS011;38119;52.710;6.398;2023-04-24T00:40:36;3.45;;;2.30;;
52124;SDS011;38119;52.710;6.398;2023-04-24T00:43:02;2.53;;;2.33;;
52124;SDS011;38119;52.710;6.398;2023-04-24T00:45:27;4.40;;;2.70;;
52124;SDS011;38119;52.710;6.398;2023-04-24T00:47:53;2.85;;;2.45;;
52124;SDS011;38119;52.710;6.398;2023-04-24T00:50:20;4.68;;;3.00;;
52124;SDS011;38119;52.710;6.398;2023-04-24T00:52:46;4.20;;;3.05;;
52124;SDS011;38119;52.710;6.398;2023-04-24T00:55:12;4.10;;;3.00;;
52124;SDS011;38119;52.710;6.398;2023-04-24T00:57:37;3.92;;;3.30;;
52124;SDS011;38119;52.710;6.398;2023-04-24T01:00:04;4.25;;;3.38;;
52124;SDS011;38119;52.710;6.398;2023-04-24T01:02:40;3.85;;;3.00;;
52124;SDS011;38119;52.710;6.398;2023-04-24T01:05:10;3.67;;;2.78;;
52124;SDS011;38119;52.710;6.398;2023-04-24T01:07:40;3.83;;;3.00;;
52124;SDS011;38119;52.710;6.398;2023-04-24T01:10:09;3.35;;;2.72;;
52124;SDS011;38119;52.710;6.398;2023-04-24T01:12:35;11.13;;;3.10;;
52124;SDS011;38119;52.710;6.398;2023-04-24T01:15:02;3.63;;;3.05;;
52124;SDS011;38119;52.710;6.398;2023-04-24T01:17:28;3.83;;;3.33;;
52124;SDS011;38119;52.710;6.398;2023-04-24T01:19:54;3.45;;;3.15;;
52124;SDS011;38119;52.710;6.398;2023-04-24T01:22:21;4.25;;;3.47;;
52124;SDS011;38119;52.710;6.398;2023-04-24T01:24:47;4.07;;;3.67;;
52124;SDS011;38119;52.710;6.398;2023-04-24T01:27:13;3.65;;;3.28;;
52124;SDS011;38119;52.710;6.398;2023-04-24T01:29:39;3.95;;;3.50;;
52124;SDS011;38119;52.710;6.398;2023-04-24T01:32:05;4.57;;;3.30;;
52124;SDS011;38119;52.710;6.398;2023-04-24T01:34:31;4.05;;;3.65;;
52124;SDS011;38119;52.710;6.398;2023-04-24T01:36:59;3.78;;;3.33;;
52124;SDS011;38119;52.710;6.398;2023-04-24T01:39:25;3.78;;;3.38;;
52124;SDS011;38119;52.710;6.398;2023-04-24T01:41:53;3.88;;;3.40;;
52124;SDS011;38119;52.710;6.398;2023-04-24T01:44:20;3.50;;;3.20;;
52124;SDS011;38119;52.710;6.398;2023-04-24T01:46:46;5.00;;;3.20;;
52124;SDS011;38119;52.710;6.398;2023-04-24T01:49:12;3.55;;;3.13;;
52124;SDS011;38119;52.710;6.398;2023-04-24T01:51:38;3.13;;;2.83;;
52124;SDS011;38119;52.710;6.398;2023-04-24T01:54:03;3.38;;;3.05;;
52124;SDS011;38119;52.710;6.398;2023-04-24T01:56:30;3.20;;;2.90;;
52124;SDS011;38119;52.710;6.398;2023-04-24T01:58:58;3.80;;;3.40;;
52124;SDS011;38119;52.710;6.398;2023-04-24T02:01:25;3.28;;;2.75;;
52124;SDS011;38119;52.710;6.398;2023-04-24T02:03:50;3.88;;;3.47;;
52124;SDS011;38119;52.710;6.398;2023-04-24T02:06:16;5.03;;;3.33;;
52124;SDS011;38119;52.710;6.398;2023-04-24T02:08:41;3.58;;;3.10;;
52124;SDS011;38119;52.710;6.398;2023-04-24T02:11:10;5.18;;;3.17;;
52124;SDS011;38119;52.710;6.398;2023-04-24T02:13:36;4.30;;;3.05;;
52124;SDS011;38119;52.710;6.398;2023-04-24T02:16:01;3.53;;;3.00;;
52124;SDS011;38119;52.710;6.398;2023-04-24T02:18:27;3.85;;;3.10;;
52124;SDS011;38119;52.710;6.398;2023-04-24T02:20:53;3.60;;;2.92;;
52124;SDS011;38119;52.710;6.398;2023-04-24T02:23:18;3.40;;;2.92;;
52124;SDS011;38119;52.710;6.398;2023-04-24T02:25:44;5.22;;;2.97;;
52124;SDS011;38119;52.710;6.398;2023-04-24T02:28:10;3.47;;;3.10;;
52124;SDS011;38119;52.710;6.398;2023-04-24T02:30:36;4.32;;;3.15;;
52124;SDS011;38119;52.710;6.398;2023-04-24T02:33:01;4.75;;;3.33;;
52124;SDS011;38119;52.710;6.398;2023-04-24T02:35:28;5.68;;;3.55;;
52124;SDS011;38119;52.710;6.398;2023-04-24T02:37:53;4.60;;;3.70;;
52124;SDS011;38119;52.710;6.398;2023-04-24T02:40:19;4.40;;;3.65;;
52124;SDS011;38119;52.710;6.398;2023-04-24T02:42:44;5.32;;;4.18;;
52124;SDS011;38119;52.710;6.398;2023-04-24T02:45:10;6.18;;;4.60;;
52124;SDS011;38119;52.710;6.398;2023-04-24T02:47:36;5.43;;;4.65;;
52124;SDS011;38119;52.710;6.398;2023-04-24T02:50:02;7.20;;;4.53;;
52124;SDS011;38119;52.710;6.398;2023-04-24T02:52:28;5.47;;;4.60;;
52124;SDS011;38119;52.710;6.398;2023-04-24T02:54:53;7.43;;;4.82;;
52124;SDS011;38119;52.710;6.398;2023-04-24T02:57:19;6.45;;;4.85;;
52124;SDS011;38119;52.710;6.398;2023-04-24T02:59:44;5.88;;;4.38;;
52124;SDS011;38119;52.710;6.398;2023-04-24T03:02:10;5.88;;;4.43;;
52124;SDS011;38119;52.710;6.398;2023-04-24T03:04:36;5.45;;;4.47;;
52124;SDS011;38119;52.710;6.398;2023-04-24T03:07:01;5.78;;;4.70;;
52124;SDS011;38119;52.710;6.398;2023-04-24T03:09:27;5.25;;;4.40;;
52124;SDS011;38119;52.710;6.398;2023-04-24T03:11:53;5.45;;;4.18;;
52124;SDS011;38119;52.710;6.398;2023-04-24T03:14:18;4.13;;;3.45;;
52124;SDS011;38119;52.710;6.398;2023-04-24T03:16:44;4.53;;;3.40;;
52124;SDS011;38119;52.710;6.398;2023-04-24T03:19:10;4.40;;;3.28;;
52124;SDS011;38119;52.710;6.398;2023-04-24T03:21:38;3.55;;;2.85;;
52124;SDS011;38119;52.710;6.398;2023-04-24T03:24:06;2.85;;;2.55;;
52124;SDS011;38119;52.710;6.398;2023-04-24T03:26:34;2.95;;;2.35;;
52124;SDS011;38119;52.710;6.398;2023-04-24T03:29:00;2.17;;;1.98;;
52124;SDS011;38119;52.710;6.398;2023-04-24T03:31:26;2.25;;;1.80;;
52124;SDS011;38119;52.710;6.398;2023-04-24T03:33:52;2.40;;;2.00;;
52124;SDS011;38119;52.710;6.398;2023-04-24T03:36:17;2.60;;;1.80;;
52124;SDS011;38119;52.710;6.398;2023-04-24T03:38:44;1.92;;;1.60;;
52124;SDS011;38119;52.710;6.398;2023-04-24T03:41:10;2.03;;;1.70;;
52124;SDS011;38119;52.710;6.398;2023-04-24T03:43:37;1.50;;;1.40;;
52124;SDS011;38119;52.710;6.398;2023-04-24T03:46:03;2.08;;;1.55;;
52124;SDS011;38119;52.710;6.398;2023-04-24T03:48:29;1.63;;;1.52;;
52124;SDS011;38119;52.710;6.398;2023-04-24T03:50:54;1.33;;;1.15;;
52124;SDS011;38119;52.710;6.398;2023-04-24T03:53:20;0.73;;;0.70;;
52124;SDS011;38119;52.710;6.398;2023-04-24T03:55:46;1.05;;;0.68;;
52124;SDS011;38119;52.710;6.398;2023-04-24T03:58:11;0.57;;;0.57;;
52124;SDS011;38119;52.710;6.398;2023-04-24T04:00:39;0.90;;;0.90;;
52124;SDS011;38119;52.710;6.398;2023-04-24T04:03:05;3.50;;;1.27;;
52124;SDS011;38119;52.710;6.398;2023-04-24T04:05:31;1.90;;;1.70;;
52124;SDS011;38119;52.710;6.398;2023-04-24T04:07:56;4.55;;;2.30;;
52124;SDS011;38119;52.710;6.398;2023-04-24T04:10:22;3.50;;;2.33;;
52124;SDS011;38119;52.710;6.398;2023-04-24T04:12:48;4.03;;;2.40;;
52124;SDS011;38119;52.710;6.398;2023-04-24T04:15:13;3.25;;;2.20;;
52124;SDS011;38119;52.710;6.398;2023-04-24T04:17:39;3.20;;;2.20;;
52124;SDS011;38119;52.710;6.398;2023-04-24T04:20:04;3.20;;;2.45;;
52124;SDS011;38119;52.710;6.398;2023-04-24T04:22:34;4.82;;;2.70;;
52124;SDS011;38119;52.710;6.398;2023-04-24T04:25:00;3.72;;;2.67;;
52124;SDS011;38119;52.710;6.398;2023-04-24T04:27:25;3.30;;;2.33;;
52124;SDS011;38119;52.710;6.398;2023-04-24T04:29:51;3.92;;;2.30;;
52124;SDS011;38119;52.710;6.398;2023-04-24T04:32:17;3.20;;;2.05;;
52124;SDS011;38119;52.710;6.398;2023-04-24T04:34:43;2.85;;;2.10;;
52124;SDS011;38119;52.710;6.398;2023-04-24T04:37:10;3.60;;;2.30;;
52124;SDS011;38119;52.710;6.398;2023-04-24T04:39:37;3.20;;;2.38;;
52124;SDS011;38119;52.710;6.398;2023-04-24T04:42:03;2.70;;;2.00;;
52124;SDS011;38119;52.710;6.398;2023-04-24T04:44:29;3.83;;;2.65;;
52124;SDS011;38119;52.710;6.398;2023-04-24T04:46:55;3.70;;;1.90;;
52124;SDS011;38119;52.710;6.398;2023-04-24T04:49:22;3.03;;;2.00;;
52124;SDS011;38119;52.710;6.398;2023-04-24T04:51:48;2.85;;;1.80;;
52124;SDS011;38119;52.710;6.398;2023-04-24T04:54:15;2.40;;;1.80;;
52124;SDS011;38119;52.710;6.398;2023-04-24T04:56:41;2.80;;;1.80;;
52124;SDS011;38119;52.710;6.398;2023-04-24T04:59:07;2.83;;;1.85;;
52124;SDS011;38119;52.710;6.398;2023-04-24T05:01:32;2.47;;;1.70;;
52124;SDS011;38119;52.710;6.398;2023-04-24T05:03:58;2.67;;;1.90;;
52124;SDS011;38119;52.710;6.398;2023-04-24T05:06:24;1.77;;;1.45;;
52124;SDS011;38119;52.710;6.398;2023-04-24T05:08:50;2.45;;;1.70;;
52124;SDS011;38119;52.710;6.398;2023-04-24T05:11:16;2.25;;;1.63;;
52124;SDS011;38119;52.710;6.398;2023-04-24T05:13:41;2.75;;;1.50;;
52124;SDS011;38119;52.710;6.398;2023-04-24T05:16:07;3.55;;;1.90;;
52124;SDS011;38119;52.710;6.398;2023-04-24T05:18:32;3.30;;;2.10;;
52124;SDS011;38119;52.710;6.398;2023-04-24T05:20:58;5.43;;;2.40;;
52124;SDS011;38119;52.710;6.398;2023-04-24T05:23:24;3.20;;;2.15;;
52124;SDS011;38119;52.710;6.398;2023-04-24T05:25:49;3.30;;;2.28;;
52124;SDS011;38119;52.710;6.398;2023-04-24T05:28:15;3.42;;;2.30;;
52124;SDS011;38119;52.710;6.398;2023-04-24T05:30:41;2.70;;;2.03;;
52124;SDS011;38119;52.710;6.398;2023-04-24T05:33:07;2.45;;;1.77;;
52124;SDS011;38119;52.710;6.398;2023-04-24T05:35:33;5.40;;;3.38;;
52124;SDS011;38119;52.710;6.398;2023-04-24T05:37:59;5.32;;;2.95;;
52124;SDS011;38119;52.710;6.398;2023-04-24T05:40:24;3.65;;;2.67;;
52124;SDS011;38119;52.710;6.398;2023-04-24T05:42:50;6.50;;;2.70;;
52124;SDS011;38119;52.710;6.398;2023-04-24T05:45:15;4.10;;;2.60;;
52124;SDS011;38119;52.710;6.398;2023-04-24T05:47:42;3.75;;;2.40;;
52124;SDS011;38119;52.710;6.398;2023-04-24T05:50:11;3.30;;;2.30;;
52124;SDS011;38119;52.710;6.398;2023-04-24T05:52:37;4.53;;;2.88;;
52124;SDS011;38119;52.710;6.398;2023-04-24T05:55:02;5.45;;;3.17;;
52124;SDS011;38119;52.710;6.398;2023-04-24T05:57:28;7.10;;;4.43;;
52124;SDS011;38119;52.710;6.398;2023-04-24T05:59:54;9.30;;;4.75;;
52124;SDS011;38119;52.710;6.398;2023-04-24T06:02:19;8.48;;;5.55;;
52124;SDS011;38119;52.710;6.398;2023-04-24T06:04:45;8.23;;;5.63;;
52124;SDS011;38119;52.710;6.398;2023-04-24T06:07:10;9.02;;;5.95;;
52124;SDS011;38119;52.710;6.398;2023-04-24T06:09:36;7.40;;;4.93;;
52124;SDS011;38119;52.710;6.398;2023-04-24T06:12:02;8.55;;;5.55;;
52124;SDS011;38119;52.710;6.398;2023-04-24T06:14:27;8.70;;;5.13;;
52124;SDS011;38119;52.710;6.398;2023-04-24T06:16:53;7.68;;;4.70;;
52124;SDS011;38119;52.710;6.398;2023-04-24T06:19:19;8.77;;;4.60;;
52124;SDS011;38119;52.710;6.398;2023-04-24T06:21:44;8.20;;;4.72;;
52124;SDS011;38119;52.710;6.398;2023-04-24T06:24:10;7.68;;;4.43;;
52124;SDS011;38119;52.710;6.398;2023-04-24T06:26:35;8.48;;;4.57;;
52124;SDS011;38119;52.710;6.398;2023-04-24T06:29:01;9.68;;;4.57;;
52124;SDS011;38119;52.710;6.398;2023-04-24T06:31:27;8.00;;;4.10;;
52124;SDS011;38119;52.710;6.398;2023-04-24T06:33:52;7.63;;;4.40;;
52124;SDS011;38119;52.710;6.398;2023-04-24T06:36:18;5.28;;;3.78;;
52124;SDS011;38119;52.710;6.398;2023-04-24T06:38:43;5.63;;;3.65;;
52124;SDS011;38119;52.710;6.398;2023-04-24T06:41:09;5.47;;;3.63;;
52124;SDS011;38119;52.710;6.398;2023-04-24T06:43:35;4.80;;;3.42;;
52124;SDS011;38119;52.710;6.398;2023-04-24T06:46:01;6.47;;;3.90;;
52124;SDS011;38119;52.710;6.398;2023-04-24T06:48:28;5.95;;;3.90;;
52124;SDS011;38119;52.710;6.398;2023-04-24T06:50:54;6.55;;;3.63;;
52124;SDS011;38119;52.710;6.398;2023-04-24T06:53:20;6.80;;;3.72;;
52124;SDS011;38119;52.710;6.398;2023-04-24T06:55:45;6.88;;;3.53;;
52124;SDS011;38119;52.710;6.398;2023-04-24T06:58:11;6.55;;;4.18;;
52124;SDS011;38119;52.710;6.398;2023-04-24T07:00:37;5.93;;;3.88;;
52124;SDS011;38119;52.710;6.398;2023-04-24T07:03:03;7.50;;;3.72;;
52124;SDS011;38119;52.710;6.398;2023-04-24T07:05:30;6.97;;;3.90;;
52124;SDS011;38119;52.710;6.398;2023-04-24T07:07:56;7.13;;;4.25;;
52124;SDS011;38119;52.710;6.398;2023-04-24T07:10:23;7.85;;;4.85;;
52124;SDS011;38119;52.710;6.398;2023-04-24T07:12:49;9.52;;;5.10;;
52124;SDS011;38119;52.710;6.398;2023-04-24T07:15:15;8.82;;;4.95;;
52124;SDS011;38119;52.710;6.398;2023-04-24T07:17:41;9.90;;;4.45;;
52124;SDS011;38119;52.710;6.398;2023-04-24T07:20:09;8.00;;;4.85;;
52124;SDS011;38119;52.710;6.398;2023-04-24T07:22:35;8.27;;;4.97;;
52124;SDS011;38119;52.710;6.398;2023-04-24T07:25:02;9.35;;;5.07;;
52124;SDS011;38119;52.710;6.398;2023-04-24T07:27:28;7.75;;;5.30;;
52124;SDS011;38119;52.710;6.398;2023-04-24T07:29:53;11.20;;;5.20;;
52124;SDS011;38119;52.710;6.398;2023-04-24T07:32:19;8.48;;;4.80;;
52124;SDS011;38119;52.710;6.398;2023-04-24T07:34:45;8.00;;;4.65;;
52124;SDS011;38119;52.710;6.398;2023-04-24T07:37:10;9.95;;;4.63;;
52124;SDS011;38119;52.710;6.398;2023-04-24T07:39:36;6.95;;;4.40;;
52124;SDS011;38119;52.710;6.398;2023-04-24T07:42:02;7.70;;;4.25;;
52124;SDS011;38119;52.710;6.398;2023-04-24T07:44:27;10.73;;;4.70;;
52124;SDS011;38119;52.710;6.398;2023-04-24T07:46:53;7.28;;;4.30;;
52124;SDS011;38119;52.710;6.398;2023-04-24T07:49:18;7.88;;;4.10;;
52124;SDS011;38119;52.710;6.398;2023-04-24T07:51:44;7.30;;;3.92;;
52124;SDS011;38119;52.710;6.398;2023-04-24T07:54:10;5.95;;;3.28;;
52124;SDS011;38119;52.710;6.398;2023-04-24T07:56:36;6.32;;;3.25;;
52124;SDS011;38119;52.710;6.398;2023-04-24T07:59:03;6.05;;;3.58;;
52124;SDS011;38119;52.710;6.398;2023-04-24T08:01:29;6.47;;;3.03;;
52124;SDS011;38119;52.710;6.398;2023-04-24T08:03:55;7.47;;;3.03;;
52124;SDS011;38119;52.710;6.398;2023-04-24T08:06:21;6.00;;;3.10;;
52124;SDS011;38119;52.710;6.398;2023-04-24T08:08:47;8.05;;;3.78;;
52124;SDS011;38119;52.710;6.398;2023-04-24T08:11:12;10.55;;;4.30;;
52124;SDS011;38119;52.710;6.398;2023-04-24T08:13:38;11.35;;;5.47;;
52124;SDS011;38119;52.710;6.398;2023-04-24T08:16:03;12.75;;;7.40;;
52124;SDS011;38119;52.710;6.398;2023-04-24T08:18:29;13.88;;;8.15;;
52124;SDS011;38119;52.710;6.398;2023-04-24T08:20:55;16.98;;;10.10;;
52124;SDS011;38119;52.710;6.398;2023-04-24T08:23:21;17.98;;;9.05;;
52124;SDS011;38119;52.710;6.398;2023-04-24T08:25:47;18.90;;;10.13;;
52124;SDS011;38119;52.710;6.398;2023-04-24T08:28:13;17.58;;;10.32;;
52124;SDS011;38119;52.710;6.398;2023-04-24T08:30:44;19.70;;;10.47;;
52124;SDS011;38119;52.710;6.398;2023-04-24T08:33:10;20.45;;;10.30;;
52124;SDS011;38119;52.710;6.398;2023-04-24T08:35:36;21.35;;;10.80;;
52124;SDS011;38119;52.710;6.398;2023-04-24T08:38:02;19.25;;;10.60;;
52124;SDS011;38119;52.710;6.398;2023-04-24T08:40:27;21.52;;;10.98;;
52124;SDS011;38119;52.710;6.398;2023-04-24T08:42:55;18.27;;;11.50;;
52124;SDS011;38119;52.710;6.398;2023-04-24T08:45:23;24.35;;;12.15;;
52124;SDS011;38119;52.710;6.398;2023-04-24T08:47:49;20.88;;;12.80;;
52124;SDS011;38119;52.710;6.398;2023-04-24T08:50:17;25.88;;;13.35;;
52124;SDS011;38119;52.710;6.398;2023-04-24T08:52:42;24.40;;;14.00;;
52124;SDS011;38119;52.710;6.398;2023-04-24T08:55:08;29.23;;;14.27;;
52124;SDS011;38119;52.710;6.398;2023-04-24T08:57:34;27.35;;;15.00;;
52124;SDS011;38119;52.710;6.398;2023-04-24T09:00:01;24.23;;;13.75;;
52124;SDS011;38119;52.710;6.398;2023-04-24T09:02:26;22.73;;;13.73;;
52124;SDS011;38119;52.710;6.398;2023-04-24T09:04:53;28.85;;;14.25;;
52124;SDS011;38119;52.710;6.398;2023-04-24T09:07:22;24.58;;;12.85;;
52124;SDS011;38119;52.710;6.398;2023-04-24T09:09:50;22.23;;;12.60;;
52124;SDS011;38119;52.710;6.398;2023-04-24T09:12:15;23.20;;;13.18;;
52124;SDS011;38119;52.710;6.398;2023-04-24T09:14:42;20.20;;;13.10;;
52124;SDS011;38119;52.710;6.398;2023-04-24T09:17:10;23.58;;;12.73;;
52124;SDS011;38119;52.710;6.398;2023-04-24T09:19:36;19.48;;;11.98;;
52124;SDS011;38119;52.710;6.398;2023-04-24T09:22:05;22.33;;;12.25;;
52124;SDS011;38119;52.710;6.398;2023-04-24T09:24:32;18.60;;;12.10;;
52124;SDS011;38119;52.710;6.398;2023-04-24T09:26:58;21.83;;;12.05;;
52124;SDS011;38119;52.710;6.398;2023-04-24T09:29:26;20.13;;;11.52;;
52124;SDS011;38119;52.710;6.398;2023-04-24T09:31:52;17.15;;;10.20;;
52124;SDS011;38119;52.710;6.398;2023-04-24T09:34:22;21.25;;;10.63;;
52124;SDS011;38119;52.710;6.398;2023-04-24T09:36:49;17.65;;;10.27;;
52124;SDS011;38119;52.710;6.398;2023-04-24T09:39:15;15.82;;;10.38;;
52124;SDS011;38119;52.710;6.398;2023-04-24T09:41:48;16.65;;;9.65;;
52124;SDS011;38119;52.710;6.398;2023-04-24T09:46:48;15.15;;;8.95;;
52124;SDS011;38119;52.710;6.398;2023-04-24T09:49:16;18.48;;;9.10;;
52124;SDS011;38119;52.710;6.398;2023-04-24T09:51:45;14.73;;;8.60;;
52124;SDS011;38119;52.710;6.398;2023-04-24T09:54:18;12.82;;;8.55;;
52124;SDS011;38119;52.710;6.398;2023-04-24T09:56:46;14.80;;;8.10;;
52124;SDS011;38119;52.710;6.398;2023-04-24T09:59:14;14.30;;;7.75;;
52124;SDS011;38119;52.710;6.398;2023-04-24T10:01:41;13.77;;;7.07;;
52124;SDS011;38119;52.710;6.398;2023-04-24T10:06:42;15.00;;;6.45;;
52124;SDS011;38119;52.710;6.398;2023-04-24T10:09:08;13.07;;;6.22;;
52124;SDS011;38119;52.710;6.398;2023-04-24T10:11:36;15.95;;;6.75;;
52124;SDS011;38119;52.710;6.398;2023-04-24T10:14:02;19.20;;;6.35;;
52124;SDS011;38119;52.710;6.398;2023-04-24T10:16:29;15.20;;;4.82;;
52124;SDS011;38119;52.710;6.398;2023-04-24T10:18:56;13.13;;;4.28;;
52124;SDS011;38119;52.710;6.398;2023-04-24T10:21:25;12.50;;;4.25;;
52124;SDS011;38119;52.710;6.398;2023-04-24T10:23:51;9.70;;;3.90;;
52124;SDS011;38119;52.710;6.398;2023-04-24T10:26:18;12.60;;;3.83;;
52124;SDS011;38119;52.710;6.398;2023-04-24T10:28:45;8.32;;;3.58;;
52124;SDS011;38119;52.710;6.398;2023-04-24T10:31:12;11.43;;;3.92;;
52124;SDS011;38119;52.710;6.398;2023-04-24T10:33:42;7.72;;;3.67;;
52124;SDS011;38119;52.710;6.398;2023-04-24T10:36:11;12.27;;;3.72;;
52124;SDS011;38119;52.710;6.398;2023-04-24T10:38:39;9.05;;;3.67;;
52124;SDS011;38119;52.710;6.398;2023-04-24T10:41:07;11.55;;;3.80;;
52124;SDS011;38119;52.710;6.398;2023-04-24T10:43:45;13.05;;;3.55;;
52124;SDS011;38119;52.710;6.398;2023-04-24T10:46:16;10.40;;;3.33;;
52124;SDS011;38119;52.710;6.398;2023-04-24T10:48:53;13.32;;;3.72;;
52124;SDS011;38119;52.710;6.398;2023-04-24T10:51:21;11.93;;;3.83;;
52124;SDS011;38119;52.710;6.398;2023-04-24T10:53:47;12.50;;;3.67;;
52124;SDS011;38119;52.710;6.398;2023-04-24T10:56:15;11.40;;;3.55;;
52124;SDS011;38119;52.710;6.398;2023-04-24T10:58:42;14.48;;;3.97;;
52124;SDS011;38119;52.710;6.398;2023-04-24T11:01:26;11.13;;;3.30;;
52124;SDS011;38119;52.710;6.398;2023-04-24T11:04:00;9.93;;;3.00;;
52124;SDS011;38119;52.710;6.398;2023-04-24T11:06:28;9.80;;;3.45;;
52124;SDS011;38119;52.710;6.398;2023-04-24T11:09:04;10.88;;;3.10;;
52124;SDS011;38119;52.710;6.398;2023-04-24T11:11:32;11.52;;;2.97;;
52124;SDS011;38119;52.710;6.398;2023-04-24T11:16:33;10.18;;;2.65;;
52124;SDS011;38119;52.710;6.398;2023-04-24T11:19:33;9.30;;;3.05;;
52124;SDS011;38119;52.710;6.398;2023-04-24T11:22:00;9.68;;;2.70;;
52124;SDS011;38119;52.710;6.398;2023-04-24T11:24:48;12.85;;;2.83;;
52124;SDS011;38119;52.710;6.398;2023-04-24T11:27:17;9.80;;;2.50;;
52124;SDS011;38119;52.710;6.398;2023-04-24T11:29:48;7.50;;;2.42;;
52124;SDS011;38119;52.710;6.398;2023-04-24T11:32:15;6.60;;;2.25;;
52124;SDS011;38119;52.710;6.398;2023-04-24T11:34:49;9.25;;;2.20;;
52124;SDS011;38119;52.710;6.398;2023-04-24T11:37:15;6.03;;;2.33;;
52124;SDS011;38119;52.710;6.398;2023-04-24T11:39:42;6.95;;;2.20;;
52124;SDS011;38119;52.710;6.398;2023-04-24T11:42:08;7.95;;;2.60;;
52124;SDS011;38119;52.710;6.398;2023-04-24T11:44:34;8.68;;;2.22;;
52124;SDS011;38119;52.710;6.398;2023-04-24T11:47:03;7.78;;;2.38;;
52124;SDS011;38119;52.710;6.398;2023-04-24T11:49:37;9.68;;;2.50;;
52124;SDS011;38119;52.710;6.398;2023-04-24T11:52:03;8.30;;;2.65;;
52124;SDS011;38119;52.710;6.398;2023-04-24T11:54:29;7.57;;;2.30;;
52124;SDS011;38119;52.710;6.398;2023-04-24T11:56:55;7.32;;;2.70;;
52124;SDS011;38119;52.710;6.398;2023-04-24T11:59:21;9.93;;;2.35;;
52124;SDS011;38119;52.710;6.398;2023-04-24T12:01:47;8.02;;;2.47;;
52124;SDS011;38119;52.710;6.398;2023-04-24T12:04:14;8.13;;;2.28;;
52124;SDS011;38119;52.710;6.398;2023-04-24T12:07:00;16.30;;;2.70;;
52124;SDS011;38119;52.710;6.398;2023-04-24T12:09:27;7.50;;;2.92;;
52124;SDS011;38119;52.710;6.398;2023-04-24T12:11:53;3.55;;;2.20;;
52124;SDS011;38119;52.710;6.398;2023-04-24T12:14:24;6.30;;;1.65;;
52124;SDS011;38119;52.710;6.398;2023-04-24T12:16:50;7.55;;;2.13;;
52124;SDS011;38119;52.710;6.398;2023-04-24T12:19:22;7.95;;;1.92;;
52124;SDS011;38119;52.710;6.398;2023-04-24T12:22:05;6.03;;;1.98;;
52124;SDS011;38119;52.710;6.398;2023-04-24T12:26:57;5.28;;;1.58;;
52124;SDS011;38119;52.710;6.398;2023-04-24T12:29:23;4.75;;;1.60;;
52124;SDS011;38119;52.710;6.398;2023-04-24T12:31:52;4.00;;;1.20;;
52124;SDS011;38119;52.710;6.398;2023-04-24T12:36:48;6.97;;;2.22;;
52124;SDS011;38119;52.710;6.398;2023-04-24T12:39:15;5.40;;;1.00;;
52124;SDS011;38119;52.710;6.398;2023-04-24T12:41:50;2.85;;;1.13;;
52124;SDS011;38119;52.710;6.398;2023-04-24T12:44:28;3.10;;;1.10;;
52124;SDS011;38119;52.710;6.398;2023-04-24T12:46:54;2.05;;;1.10;;
52124;SDS011;38119;52.710;6.398;2023-04-24T12:49:20;4.40;;;1.40;;
52124;SDS011;38119;52.710;6.398;2023-04-24T12:51:45;5.80;;;1.40;;
52124;SDS011;38119;52.710;6.398;2023-04-24T12:54:11;4.80;;;1.70;;
52124;SDS011;38119;52.710;6.398;2023-04-24T12:56:36;5.20;;;2.42;;
52124;SDS011;38119;52.710;6.398;2023-04-24T12:59:04;7.80;;;2.45;;
52124;SDS011;38119;52.710;6.398;2023-04-24T13:01:30;4.65;;;1.85;;
52124;SDS011;38119;52.710;6.398;2023-04-24T13:03:59;10.63;;;2.20;;
52124;SDS011;38119;52.710;6.398;2023-04-24T13:06:25;7.15;;;2.05;;
52124;SDS011;38119;52.710;6.398;2023-04-24T13:08:51;7.00;;;1.70;;
52124;SDS011;38119;52.710;6.398;2023-04-24T13:11:17;6.05;;;1.50;;
52124;SDS011;38119;52.710;6.398;2023-04-24T13:13:50;5.53;;;1.80;;
52124;SDS011;38119;52.710;6.398;2023-04-24T13:16:16;7.72;;;1.85;;
52124;SDS011;38119;52.710;6.398;2023-04-24T13:18:41;9.32;;;1.52;;
52124;SDS011;38119;52.710;6.398;2023-04-24T13:21:07;8.80;;;1.63;;
52124;SDS011;38119;52.710;6.398;2023-04-24T13:23:32;4.80;;;1.83;;
52124;SDS011;38119;52.710;6.398;2023-04-24T13:25:59;5.45;;;1.27;;
52124;SDS011;38119;52.710;6.398;2023-04-24T13:28:26;6.53;;;1.60;;
52124;SDS011;38119;52.710;6.398;2023-04-24T13:30:52;2.83;;;1.20;;
52124;SDS011;38119;52.710;6.398;2023-04-24T13:33:18;6.05;;;1.20;;
52124;SDS011;38119;52.710;6.398;2023-04-24T13:35:44;4.15;;;1.00;;
52124;SDS011;38119;52.710;6.398;2023-04-24T13:38:09;4.15;;;1.25;;
52124;SDS011;38119;52.710;6.398;2023-04-24T13:40:35;4.63;;;1.10;;
52124;SDS011;38119;52.710;6.398;2023-04-24T13:43:01;6.05;;;1.50;;
52124;SDS011;38119;52.710;6.398;2023-04-24T13:45:27;5.70;;;1.55;;
52124;SDS011;38119;52.710;6.398;2023-04-24T13:47:53;5.65;;;1.48;;
52124;SDS011;38119;52.710;6.398;2023-04-24T13:50:20;5.05;;;1.65;;
52124;SDS011;38119;52.710;6.398;2023-04-24T13:52:45;4.63;;;1.63;;
52124;SDS011;38119;52.710;6.398;2023-04-24T13:55:11;7.15;;;1.70;;
52124;SDS011;38119;52.710;6.398;2023-04-24T13:57:38;7.03;;;1.85;;
52124;SDS011;38119;52.710;6.398;2023-04-24T14:00:08;9.60;;;2.20;;
52124;SDS011;38119;52.710;6.398;2023-04-24T14:02:35;4.50;;;1.80;;
52124;SDS011;38119;52.710;6.398;2023-04-24T14:05:04;8.07;;;1.90;;
52124;SDS011;38119;52.710;6.398;2023-04-24T14:07:30;12.20;;;2.45;;
52124;SDS011;38119;52.710;6.398;2023-04-24T14:09:56;8.13;;;2.42;;
52124;SDS011;38119;52.710;6.398;2023-04-24T14:12:22;7.72;;;2.10;;
52124;SDS011;38119;52.710;6.398;2023-04-24T14:14:48;10.95;;;2.53;;
52124;SDS011;38119;52.710;6.398;2023-04-24T14:17:13;11.82;;;2.60;;
52124;SDS011;38119;52.710;6.398;2023-04-24T14:19:39;10.27;;;2.42;;
52124;SDS011;38119;52.710;6.398;2023-04-24T14:22:05;7.03;;;2.45;;
52124;SDS011;38119;52.710;6.398;2023-04-24T14:24:31;6.30;;;2.03;;
52124;SDS011;38119;52.710;6.398;2023-04-24T14:26:57;11.25;;;2.72;;
52124;SDS011;38119;52.710;6.398;2023-04-24T14:29:22;8.82;;;2.58;;
52124;SDS011;38119;52.710;6.398;2023-04-24T14:31:48;8.27;;;2.17;;
52124;SDS011;38119;52.710;6.398;2023-04-24T14:34:13;12.48;;;2.60;;
52124;SDS011;38119;52.710;6.398;2023-04-24T14:36:39;13.40;;;3.38;;
52124;SDS011;38119;52.710;6.398;2023-04-24T14:39:05;11.65;;;3.20;;
52124;SDS011;38119;52.710;6.398;2023-04-24T14:41:32;13.95;;;2.53;;
52124;SDS011;38119;52.710;6.398;2023-04-24T14:44:02;10.55;;;2.70;;
52124;SDS011;38119;52.710;6.398;2023-04-24T14:46:31;11.63;;;2.90;;
52124;SDS011;38119;52.710;6.398;2023-04-24T14:48:57;10.18;;;2.60;;
52124;SDS011;38119;52.710;6.398;2023-04-24T14:51:23;12.93;;;2.58;;
52124;SDS011;38119;52.710;6.398;2023-04-24T14:53:48;8.88;;;2.42;;